createdAt,value
2018-06-05T00:01:51.996Z,18.30
2018-06-05T00:04:20.694Z,18.30
2018-06-05T00:06:49.340Z,18.30
2018-06-05T00:09:17.974Z,18.20
2018-06-05T00:11:46.653Z,18.00
2018-06-05T00:14:15.364Z,17.90
2018-06-05T00:16:44.031Z,17.90
2018-06-05T00:19:12.678Z,17.80
2018-06-05T00:21:41.311Z,17.80
2018-06-05T00:24:09.990Z,17.80
2018-06-05T00:26:38.642Z,17.80
2018-06-05T00:29:07.286Z,17.80
2018-06-05T00:31:35.969Z,17.80
2018-06-05T00:34:04.631Z,17.70
2018-06-05T00:36:33.310Z,17.70
2018-06-05T00:39:01.985Z,17.70
2018-06-05T00:41:30.638Z,17.70
2018-06-05T00:43:59.291Z,17.70
2018-06-05T00:46:27.965Z,17.60
2018-06-05T00:48:56.591Z,17.50
2018-06-05T00:51:36.387Z,17.50
2018-06-05T00:54:05.033Z,17.40
2018-06-05T00:56:33.691Z,17.30
2018-06-05T00:59:02.345Z,17.20
2018-06-05T01:01:30.989Z,17.10
2018-06-05T01:03:59.612Z,17.10
2018-06-05T01:06:28.293Z,17.10
2018-06-05T01:08:56.929Z,17.10
2018-06-05T01:11:25.606Z,17.10
2018-06-05T01:13:54.248Z,17.10
2018-06-05T01:16:22.920Z,17.10
2018-06-05T01:18:51.592Z,17.10
2018-06-05T01:21:20.244Z,17.10
2018-06-05T01:23:48.910Z,17.10
2018-06-05T01:26:17.609Z,17.10
2018-06-05T01:28:46.239Z,17.20
2018-06-05T01:31:14.917Z,17.20
2018-06-05T01:33:43.567Z,17.20
2018-06-05T01:36:12.216Z,17.10
2018-06-05T01:38:40.897Z,17.10
2018-06-05T01:41:09.541Z,17.00
2018-06-05T01:43:38.172Z,17.00
2018-06-05T01:46:06.844Z,17.00
2018-06-05T01:51:03.813Z,17.00
2018-06-05T01:53:32.488Z,17.00
2018-06-05T01:56:01.108Z,17.10
2018-06-05T01:58:29.772Z,17.10
2018-06-05T02:00:58.414Z,17.10
2018-06-05T02:03:27.078Z,17.00
2018-06-05T02:05:55.761Z,17.00
2018-06-05T02:08:24.432Z,17.00
2018-06-05T02:10:53.137Z,17.00
2018-06-05T02:13:21.793Z,17.00
2018-06-05T02:15:50.437Z,16.90
2018-06-05T02:18:19.112Z,16.90
2018-06-05T02:20:47.756Z,16.90
2018-06-05T02:23:16.385Z,16.90
2018-06-05T02:25:45.057Z,16.90
2018-06-05T02:28:13.700Z,16.90
2018-06-05T02:30:42.344Z,16.90
2018-06-05T02:33:10.997Z,16.80
2018-06-05T02:35:39.677Z,16.80
2018-06-05T02:38:08.354Z,16.80
2018-06-05T02:40:37.055Z,16.80
2018-06-05T02:43:05.721Z,16.80
2018-06-05T02:45:34.385Z,16.80
2018-06-05T02:50:31.328Z,16.70
2018-06-05T02:52:59.976Z,16.70
2018-06-05T02:55:28.626Z,16.70
2018-06-05T02:57:57.348Z,16.60
2018-06-05T03:00:25.994Z,16.70
2018-06-05T03:02:54.654Z,16.70
2018-06-05T03:05:23.296Z,16.60
2018-06-05T03:07:51.975Z,16.60
2018-06-05T03:12:48.893Z,16.60
2018-06-05T03:15:17.558Z,16.70
2018-06-05T03:17:46.243Z,16.70
2018-06-05T03:20:14.900Z,16.70
2018-06-05T03:22:43.571Z,16.70
2018-06-05T03:25:12.266Z,16.70
2018-06-05T03:27:40.929Z,16.70
2018-06-05T03:30:09.622Z,16.60
2018-06-05T03:32:38.329Z,16.60
2018-06-05T03:35:06.999Z,16.70
2018-06-05T03:37:35.657Z,16.70
2018-06-05T03:40:04.413Z,16.70
2018-06-05T03:42:33.056Z,16.70
2018-06-05T03:45:01.735Z,16.70
2018-06-05T03:47:30.430Z,16.70
2018-06-05T03:49:59.080Z,16.70
2018-06-05T03:52:27.743Z,16.70
2018-06-05T03:54:56.426Z,16.70
2018-06-05T03:57:25.046Z,16.70
2018-06-05T03:59:53.707Z,16.70
2018-06-05T04:02:22.362Z,16.80
2018-06-05T04:04:51.024Z,16.80
2018-06-05T04:07:19.690Z,16.80
2018-06-05T04:09:48.316Z,16.80
2018-06-05T04:12:16.973Z,16.80
2018-06-05T04:14:45.650Z,16.90
2018-06-05T04:17:14.267Z,16.90
2018-06-05T04:19:42.957Z,16.90
2018-06-05T04:22:11.569Z,16.90
2018-06-05T04:24:40.219Z,16.90
2018-06-05T04:27:08.922Z,17.00
2018-06-05T04:29:37.568Z,17.00
2018-06-05T04:32:06.264Z,17.00
2018-06-05T04:34:34.894Z,17.10
2018-06-05T04:37:03.585Z,17.20
2018-06-05T04:39:32.277Z,17.20
2018-06-05T04:42:00.938Z,17.20
2018-06-05T04:44:29.610Z,17.30
2018-06-05T04:46:58.424Z,17.40
2018-06-05T04:49:27.085Z,17.50
2018-06-05T04:51:55.773Z,17.60
2018-06-05T04:54:24.452Z,17.70
2018-06-05T04:56:53.139Z,17.80
2018-06-05T04:59:21.807Z,17.90
2018-06-05T05:01:50.436Z,17.90
2018-06-05T05:04:19.094Z,17.90
2018-06-05T05:06:47.790Z,18.00
2018-06-05T05:09:17.707Z,18.10
2018-06-05T05:11:46.377Z,18.00
2018-06-05T05:14:15.054Z,18.10
2018-06-05T05:16:43.816Z,18.10
2018-06-05T05:19:12.506Z,18.20
2018-06-05T05:21:41.201Z,18.10
2018-06-05T05:24:09.839Z,18.20
2018-06-05T05:26:38.486Z,18.20
2018-06-05T05:29:07.150Z,18.20
2018-06-05T05:31:35.794Z,18.30
2018-06-05T05:34:04.477Z,18.50
2018-06-05T05:36:33.165Z,18.80
2018-06-05T05:39:01.897Z,19.50
2018-06-05T05:41:30.649Z,20.40
2018-06-05T05:43:59.336Z,21.20
2018-06-05T05:46:27.967Z,22.00
2018-06-05T05:48:56.640Z,22.60
2018-06-05T05:51:25.326Z,23.10
2018-06-05T05:53:53.969Z,23.50
2018-06-05T05:56:22.628Z,23.80
2018-06-05T05:58:51.274Z,23.90
2018-06-05T06:01:19.966Z,24.20
2018-06-05T06:03:48.687Z,24.60
2018-06-05T06:06:17.328Z,24.90
2018-06-05T06:08:45.982Z,25.20
2018-06-05T06:11:14.669Z,25.40
2018-06-05T06:13:43.317Z,25.50
2018-06-05T06:16:12.069Z,25.40
2018-06-05T06:18:40.725Z,25.00
2018-06-05T06:21:09.394Z,25.10
2018-06-05T06:23:38.065Z,25.30
2018-06-05T06:26:06.743Z,25.50
2018-06-05T06:28:35.402Z,25.70
2018-06-05T06:31:04.128Z,26.10
2018-06-05T06:33:32.772Z,26.40
2018-06-05T06:36:01.449Z,26.40
2018-06-05T06:40:58.425Z,26.60
2018-06-05T06:43:27.112Z,26.70
2018-06-05T06:45:55.782Z,26.90
2018-06-05T06:50:52.748Z,26.30
2018-06-05T06:55:49.720Z,25.70
2018-06-05T06:58:18.401Z,25.20
2018-06-05T07:03:15.391Z,24.20
2018-06-05T07:05:44.075Z,24.10
2018-06-05T07:08:12.735Z,24.00
2018-06-05T07:10:41.380Z,23.90
2018-06-05T07:13:10.060Z,23.90
2018-06-05T07:15:38.729Z,23.80
2018-06-05T07:18:07.532Z,23.50
2018-06-05T07:20:36.202Z,23.50
2018-06-05T07:23:04.901Z,23.60
2018-06-05T07:25:33.579Z,23.50
2018-06-05T07:28:02.273Z,23.50
2018-06-05T07:30:30.919Z,23.50
2018-06-05T07:32:59.612Z,23.50
2018-06-05T07:35:28.292Z,23.50
2018-06-05T07:37:56.969Z,23.40
2018-06-05T07:40:25.596Z,23.20
2018-06-05T07:42:54.298Z,23.10
2018-06-05T07:45:22.981Z,23.10
2018-06-05T07:47:51.648Z,23.10
2018-06-05T07:50:21.178Z,23.10
2018-06-05T07:52:49.891Z,22.90
2018-06-05T07:55:18.598Z,22.80
2018-06-05T07:57:47.261Z,22.70
2018-06-05T08:00:15.914Z,22.70
2018-06-05T08:02:44.552Z,22.90
2018-06-05T08:05:16.760Z,23.20
2018-06-05T08:07:45.425Z,23.40
2018-06-05T08:10:14.088Z,23.60
2018-06-05T08:15:35.829Z,24.00
2018-06-05T08:18:06.530Z,24.20
2018-06-05T08:20:35.222Z,24.30
2018-06-05T08:23:03.865Z,24.40
2018-06-05T08:25:32.535Z,24.50
2018-06-05T08:28:01.225Z,24.50
2018-06-05T08:30:29.892Z,24.50
2018-06-05T08:32:58.581Z,24.60
2018-06-05T08:35:27.342Z,24.60
2018-06-05T08:37:55.987Z,24.70
2018-06-05T08:40:24.703Z,24.70
2018-06-05T08:42:53.397Z,24.50
2018-06-05T08:45:22.049Z,24.50
2018-06-05T08:47:50.742Z,24.50
2018-06-05T08:50:19.378Z,24.60
2018-06-05T08:52:48.034Z,24.80
2018-06-05T08:57:44.975Z,24.80
2018-06-05T09:00:13.657Z,24.40
2018-06-05T09:02:42.336Z,24.30
2018-06-05T09:05:11.036Z,24.50
2018-06-05T09:07:39.814Z,24.70
2018-06-05T09:10:08.505Z,25.10
2018-06-05T09:12:37.156Z,25.40
2018-06-05T09:15:05.841Z,25.70
2018-06-05T09:17:34.493Z,25.80
2018-06-05T09:22:31.496Z,26.00
2018-06-05T09:25:00.154Z,26.00
2018-06-05T09:27:28.810Z,25.90
2018-06-05T09:29:57.498Z,26.00
2018-06-05T09:32:26.145Z,26.00
2018-06-05T09:34:54.793Z,26.10
2018-06-05T09:37:23.497Z,26.10
2018-06-05T09:39:52.141Z,26.00
2018-06-05T09:42:20.837Z,26.10
2018-06-05T09:47:17.796Z,26.30
2018-06-05T09:52:14.872Z,26.30
2018-06-05T09:54:43.576Z,26.40
2018-06-05T09:57:12.230Z,26.40
2018-06-05T10:02:09.197Z,26.30
2018-06-05T10:07:06.157Z,26.30
2018-06-05T10:12:03.112Z,26.30
2018-06-05T10:14:31.745Z,26.40
2018-06-05T10:17:00.403Z,26.50
2018-06-05T10:19:29.073Z,26.50
2018-06-05T10:26:54.315Z,26.50
2018-06-05T10:34:19.541Z,26.50
2018-06-05T10:39:16.506Z,26.90
2018-06-05T10:44:13.492Z,26.60
2018-06-05T10:46:42.183Z,26.80
2018-06-05T10:49:10.855Z,26.90
2018-06-05T10:51:39.549Z,27.00
2018-06-05T10:54:08.204Z,27.10
2018-06-05T10:56:42.604Z,27.10
2018-06-05T10:59:11.249Z,27.00
2018-06-05T11:01:39.908Z,27.00
2018-06-05T11:06:36.873Z,27.30
2018-06-05T11:09:08.006Z,27.40
2018-06-05T11:14:05.611Z,27.20
2018-06-05T11:16:34.308Z,27.10
2018-06-05T11:19:03.024Z,27.40
2018-06-05T11:21:31.701Z,27.50
2018-06-05T11:24:00.441Z,27.60
2018-06-05T11:26:29.117Z,27.80
2018-06-05T11:31:27.276Z,27.80
2018-06-05T11:33:56.008Z,27.60
2018-06-05T11:36:25.333Z,27.60
2018-06-05T11:38:53.980Z,27.70
2018-06-05T11:43:54.058Z,28.00
2018-06-05T11:46:22.733Z,28.10
2018-06-05T11:48:51.446Z,28.10
2018-06-05T11:51:20.128Z,28.20
2018-06-05T11:53:48.859Z,28.40
2018-06-05T11:56:17.590Z,28.60
2018-06-05T11:58:46.235Z,28.70
2018-06-05T12:01:14.933Z,28.90
2018-06-05T12:03:43.568Z,28.90
2018-06-05T12:06:12.204Z,28.90
2018-06-05T12:08:40.899Z,29.10
2018-06-05T12:11:09.537Z,29.10
2018-06-05T12:13:38.165Z,29.10
2018-06-05T12:16:06.867Z,29.10
2018-06-05T12:18:35.524Z,29.30
2018-06-05T12:21:04.192Z,29.10
2018-06-05T12:23:32.841Z,29.40
2018-06-05T12:26:01.514Z,29.60
2018-06-05T12:28:30.157Z,29.80
2018-06-05T12:30:58.884Z,29.70
2018-06-05T12:33:27.562Z,29.60
2018-06-05T12:36:01.650Z,29.30
2018-06-05T12:38:30.305Z,29.10
2018-06-05T12:40:59.064Z,29.00
2018-06-05T12:43:27.752Z,28.90
2018-06-05T12:45:56.455Z,28.70
2018-06-05T12:48:25.187Z,28.50
2018-06-05T12:50:53.831Z,28.50
2018-06-05T12:53:22.491Z,28.60
2018-06-05T12:55:51.212Z,28.80
2018-06-05T13:00:48.120Z,29.40
2018-06-05T13:03:16.844Z,29.60
2018-06-05T13:05:45.501Z,29.50
2018-06-05T13:08:14.132Z,29.30
2018-06-05T13:10:42.829Z,29.20
2018-06-05T13:15:39.755Z,29.70
2018-06-05T13:18:08.408Z,30.00
2018-06-05T13:20:37.072Z,30.20
2018-06-05T13:23:05.793Z,30.60
2018-06-05T13:25:34.408Z,30.60
2018-06-05T13:28:03.048Z,30.50
2018-06-05T13:30:31.689Z,30.20
2018-06-05T13:35:34.072Z,29.60
2018-06-05T13:40:31.065Z,29.10
2018-06-05T13:42:59.728Z,28.90
2018-06-05T13:50:24.934Z,28.70
2018-06-05T13:53:06.157Z,29.00
2018-06-05T13:55:34.804Z,29.50
2018-06-05T13:58:03.563Z,29.70
2018-06-05T14:00:32.278Z,29.90
2018-06-05T14:03:00.908Z,29.90
2018-06-05T14:05:29.579Z,29.90
2018-06-05T14:07:58.254Z,29.30
2018-06-05T14:10:26.955Z,28.90
2018-06-05T14:12:55.628Z,28.70
2018-06-05T14:17:52.596Z,28.30
2018-06-05T14:22:49.522Z,28.70
2018-06-05T14:25:18.156Z,29.10
2018-06-05T14:27:46.909Z,29.50
2018-06-05T14:30:15.546Z,29.70
2018-06-05T14:32:44.176Z,30.00
2018-06-05T14:35:12.944Z,30.20
2018-06-05T14:37:41.744Z,30.30
2018-06-05T14:40:32.655Z,30.60
2018-06-05T14:43:01.308Z,30.70
2018-06-05T14:45:29.982Z,31.20
2018-06-05T14:47:58.639Z,31.30
2018-06-05T14:50:28.415Z,31.50
2018-06-05T14:52:57.093Z,31.60
2018-06-05T14:55:25.760Z,31.60
2018-06-05T14:57:54.412Z,31.50
2018-06-05T15:00:23.104Z,31.00
2018-06-05T15:02:51.758Z,30.60
2018-06-05T15:05:20.425Z,30.10
2018-06-05T15:07:49.072Z,29.60
2018-06-05T15:15:57.148Z,28.40
2018-06-05T15:18:32.430Z,28.00
2018-06-05T15:21:09.208Z,27.80
2018-06-05T15:23:45.968Z,27.80
2018-06-05T15:26:14.636Z,27.50
2018-06-05T15:28:43.268Z,27.40
2018-06-05T15:31:11.924Z,27.20
2018-06-05T15:36:21.251Z,27.00
2018-06-05T15:38:49.929Z,26.90
2018-06-05T15:41:18.596Z,26.90
2018-06-05T15:43:48.256Z,26.90
2018-06-05T15:46:16.906Z,26.90
2018-06-05T15:48:49.496Z,26.80
2018-06-05T15:51:18.218Z,26.80
2018-06-05T15:56:15.144Z,26.70
2018-06-05T15:58:43.797Z,26.60
2018-06-05T16:01:12.481Z,26.50
2018-06-05T16:03:41.167Z,26.40
2018-06-05T16:06:09.880Z,26.40
2018-06-05T16:08:39.640Z,26.30
2018-06-05T16:11:08.315Z,26.30
2018-06-05T16:16:05.269Z,26.30
2018-06-05T16:18:33.930Z,26.30
2018-06-05T16:21:02.557Z,26.30
2018-06-05T16:23:31.310Z,26.30
2018-06-05T16:26:00.001Z,26.20
2018-06-05T16:28:28.614Z,26.20
2018-06-05T16:30:57.484Z,26.30
2018-06-05T16:33:26.156Z,26.20
2018-06-05T16:35:54.805Z,26.20
2018-06-05T16:38:23.552Z,26.20
2018-06-05T16:40:52.244Z,26.20
2018-06-05T16:43:20.937Z,26.20
2018-06-05T16:45:49.700Z,26.20
2018-06-05T16:48:33.080Z,26.20
2018-06-05T16:51:01.788Z,26.10
2018-06-05T16:53:30.436Z,26.00
2018-06-05T16:55:59.119Z,26.00
2018-06-05T16:58:27.895Z,26.00
2018-06-05T17:00:56.539Z,26.00
2018-06-05T17:03:25.217Z,26.00
2018-06-05T17:05:53.900Z,26.00
2018-06-05T17:11:34.182Z,26.00
2018-06-05T17:14:02.871Z,26.00
2018-06-05T17:16:31.554Z,26.00
2018-06-05T17:19:00.259Z,26.00
2018-06-05T17:24:28.268Z,26.10
2018-06-05T17:29:25.215Z,26.20
2018-06-05T17:31:53.881Z,26.20
2018-06-05T17:34:22.638Z,26.20
2018-06-05T17:36:51.305Z,26.30
2018-06-05T17:39:19.968Z,26.20
2018-06-05T17:44:26.790Z,26.20
2018-06-05T17:46:55.434Z,26.20
2018-06-05T17:49:24.196Z,26.20
2018-06-05T17:51:52.854Z,26.20
2018-06-05T17:54:21.572Z,26.20
2018-06-05T17:56:50.248Z,26.20
2018-06-05T17:59:25.971Z,26.10
2018-06-05T18:01:54.600Z,26.10
2018-06-05T18:04:23.289Z,26.00
2018-06-05T18:06:51.934Z,26.00
2018-06-05T18:09:20.645Z,26.00
2018-06-05T18:11:49.408Z,25.90
2018-06-05T18:14:18.112Z,25.80
2018-06-05T18:16:47.808Z,25.70
2018-06-05T18:19:16.432Z,25.60
2018-06-05T18:21:45.087Z,25.50
2018-06-05T18:24:13.749Z,25.50
2018-06-05T18:26:42.429Z,25.40
2018-06-05T18:29:11.074Z,25.30
2018-06-05T18:31:39.702Z,25.20
2018-06-05T18:34:08.356Z,25.20
2018-06-05T18:36:37.040Z,25.10
2018-06-05T18:39:07.946Z,25.10
2018-06-05T18:44:32.622Z,25.00
2018-06-05T18:47:01.397Z,24.90
2018-06-05T18:49:30.013Z,24.90
2018-06-05T18:51:58.889Z,24.80
2018-06-05T18:54:27.568Z,24.70
2018-06-05T18:57:04.021Z,24.60
2018-06-05T18:59:32.741Z,24.60
2018-06-05T19:02:01.510Z,24.50
2018-06-05T19:04:30.166Z,24.50
2018-06-05T19:06:58.832Z,24.40
2018-06-05T19:09:27.482Z,24.40
2018-06-05T19:12:18.531Z,24.30
2018-06-05T19:14:47.208Z,24.10
2018-06-05T19:17:15.882Z,24.00
2018-06-05T19:19:57.504Z,23.90
2018-06-05T19:22:26.184Z,23.90
2018-06-05T19:24:54.824Z,23.90
2018-06-05T19:27:23.467Z,23.80
2018-06-05T19:29:52.195Z,23.80
2018-06-05T19:32:24.340Z,23.80
2018-06-05T19:34:53.083Z,23.80
2018-06-05T19:37:21.706Z,23.70
2018-06-05T19:39:50.618Z,23.60
2018-06-05T19:42:19.307Z,23.50
2018-06-05T19:44:47.950Z,23.40
2018-06-05T19:47:16.616Z,23.30
2018-06-05T19:49:46.304Z,23.30
2018-06-05T19:52:15.008Z,23.30
2018-06-05T19:54:43.770Z,23.30
2018-06-05T19:57:12.425Z,23.20
2018-06-05T19:59:41.089Z,23.10
2018-06-05T20:02:09.855Z,23.10
2018-06-05T20:04:38.527Z,23.00
2018-06-05T20:07:07.204Z,22.90
2018-06-05T20:09:36.726Z,22.80
2018-06-05T20:12:05.440Z,22.80
2018-06-05T20:14:34.159Z,22.80
2018-06-05T20:17:02.837Z,22.80
2018-06-05T20:19:31.493Z,22.80
2018-06-05T20:22:00.167Z,22.70
2018-06-05T20:24:28.876Z,22.70
2018-06-05T20:26:57.529Z,22.60
2018-06-05T20:29:26.179Z,22.60
2018-06-05T20:32:07.362Z,22.60
2018-06-05T20:34:36.021Z,22.50
2018-06-05T20:37:04.695Z,22.50
2018-06-05T20:39:33.353Z,22.40
2018-06-05T20:42:02.009Z,22.40
2018-06-05T20:44:30.680Z,22.40
2018-06-05T20:46:59.545Z,22.30
2018-06-05T20:51:56.692Z,22.20
2018-06-05T20:54:25.349Z,22.20
2018-06-05T20:56:53.981Z,22.20
2018-06-05T20:59:22.664Z,22.20
2018-06-05T21:04:19.696Z,22.00
2018-06-05T21:06:48.451Z,22.00
2018-06-05T21:09:17.106Z,22.00
2018-06-05T21:11:45.850Z,22.00
2018-06-05T21:14:14.453Z,22.10
2018-06-05T21:16:43.102Z,22.00
2018-06-05T21:19:11.802Z,21.90
2018-06-05T21:21:40.509Z,21.80
2018-06-05T21:24:09.159Z,21.80
2018-06-05T21:26:37.804Z,21.70
2018-06-05T21:29:06.445Z,21.70
2018-06-05T21:31:35.116Z,21.60
2018-06-05T21:34:03.773Z,21.60
2018-06-05T21:36:32.432Z,21.50
2018-06-05T21:39:01.089Z,21.50
2018-06-05T21:41:29.716Z,21.50
2018-06-05T21:43:58.417Z,21.40
2018-06-05T21:46:27.049Z,21.40
2018-06-05T21:48:55.691Z,21.40
2018-06-05T21:51:24.357Z,21.30
2018-06-05T21:53:53.022Z,21.30
2018-06-05T21:56:21.681Z,21.20
2018-06-05T21:58:50.371Z,21.20
2018-06-05T22:01:19.050Z,21.10
2018-06-05T22:03:47.732Z,21.10
2018-06-05T22:06:16.387Z,21.00
2018-06-05T22:08:45.040Z,20.80
2018-06-05T22:11:13.671Z,20.70
2018-06-05T22:13:42.340Z,20.60
2018-06-05T22:16:10.989Z,20.50
2018-06-05T22:18:39.705Z,20.40
2018-06-05T22:21:08.425Z,20.20
2018-06-05T22:23:37.115Z,20.20
2018-06-05T22:26:05.776Z,20.10
2018-06-05T22:28:34.445Z,20.00
2018-06-05T22:31:03.100Z,20.00
2018-06-05T22:33:31.780Z,20.00
2018-06-05T22:36:00.433Z,19.90
2018-06-05T22:38:29.103Z,19.90
2018-06-05T22:40:58.792Z,19.70
2018-06-05T22:43:27.469Z,19.60
2018-06-05T22:45:56.126Z,19.60
2018-06-05T22:48:24.776Z,19.50
2018-06-05T22:50:56.591Z,19.60
2018-06-05T22:53:25.261Z,19.60
2018-06-05T22:55:53.912Z,19.50
2018-06-05T22:58:22.576Z,19.50
2018-06-05T23:00:51.446Z,19.40
2018-06-05T23:06:13.511Z,19.20
2018-06-05T23:08:42.528Z,19.10
2018-06-05T23:11:11.166Z,19.00
2018-06-05T23:13:39.818Z,18.90
2018-06-05T23:16:08.474Z,18.90
2018-06-05T23:18:37.118Z,19.00
2018-06-05T23:21:05.745Z,18.90
2018-06-05T23:23:34.423Z,18.90
2018-06-05T23:26:03.073Z,18.90
2018-06-05T23:28:31.728Z,18.80
2018-06-05T23:31:00.377Z,18.80
2018-06-05T23:33:29.021Z,18.70
2018-06-05T23:35:57.710Z,18.70
2018-06-05T23:38:26.394Z,18.70
2018-06-05T23:40:55.066Z,18.60
2018-06-05T23:43:23.693Z,18.60
2018-06-05T23:45:52.385Z,18.50
2018-06-05T23:48:21.029Z,18.50
2018-06-05T23:50:49.668Z,18.40
2018-06-05T23:53:18.339Z,18.40
2018-06-05T23:55:46.990Z,18.30
2018-06-05T23:58:15.620Z,18.20
